Terminal Aerodrome Forecast
Issued by NWS

Home | Current Version | Previous Version | Text Only | Print | Product List | Glossary On
Versions: 1 2 3 4 5 6 7 8 9 10 11 12 13 14 15 16 17 18 19 20 21 22 23 24 25 26 27 28 29 30 31 32
054
FTAK31 PAFA 300547
TAFAGA
TAF
PAGA 300547Z 3006/3106 22010G18KT P6SM -RA BKN015 OVC020
      TEMPO 3006/3008 6SM RA BR BKN015
     FM300800 23012KT 5SM -RA BR BKN013
     FM301200 25012KT 3SM -RA BR OVC012
     FM301700 20008KT 5SM -RA BR OVC015=

USA.gov is the U.S. government's official web portal to all federal, state and local government web resources and services.